sensor_id;sensor_type;location;lat;lon;timestamp;P1;durP1;ratioP1;P2;durP2;ratioP2
21886;SDS011;11108;49.988;8.182;2022-09-24T00:01:59;2.73;;;2.53;;
21886;SDS011;11108;49.988;8.182;2022-09-24T00:04:25;2.93;;;2.73;;
21886;SDS011;11108;49.988;8.182;2022-09-24T00:06:51;3.00;;;2.80;;
21886;SDS011;11108;49.988;8.182;2022-09-24T00:09:17;3.10;;;2.90;;
21886;SDS011;11108;49.988;8.182;2022-09-24T00:11:43;2.67;;;2.57;;
21886;SDS011;11108;49.988;8.182;2022-09-24T00:14:09;2.90;;;2.70;;
21886;SDS011;11108;49.988;8.182;2022-09-24T00:16:34;2.50;;;2.40;;
21886;SDS011;11108;49.988;8.182;2022-09-24T00:19:00;3.00;;;2.70;;
21886;SDS011;11108;49.988;8.182;2022-09-24T00:21:27;2.87;;;2.70;;
21886;SDS011;11108;49.988;8.182;2022-09-24T00:23:55;2.83;;;2.63;;
21886;SDS011;11108;49.988;8.182;2022-09-24T00:26:21;3.10;;;2.90;;
21886;SDS011;11108;49.988;8.182;2022-09-24T00:29:05;2.43;;;2.33;;
21886;SDS011;11108;49.988;8.182;2022-09-24T00:31:30;2.97;;;2.67;;
21886;SDS011;11108;49.988;8.182;2022-09-24T00:33:56;2.70;;;2.57;;
21886;SDS011;11108;49.988;8.182;2022-09-24T00:36:21;2.90;;;2.70;;
21886;SDS011;11108;49.988;8.182;2022-09-24T00:38:48;2.97;;;2.37;;
21886;SDS011;11108;49.988;8.182;2022-09-24T00:41:14;2.57;;;2.47;;
21886;SDS011;11108;49.988;8.182;2022-09-24T00:43:39;2.60;;;2.50;;
21886;SDS011;11108;49.988;8.182;2022-09-24T00:46:06;2.50;;;2.40;;
21886;SDS011;11108;49.988;8.182;2022-09-24T00:48:33;2.40;;;2.30;;
21886;SDS011;11108;49.988;8.182;2022-09-24T00:50:59;3.20;;;2.90;;
21886;SDS011;11108;49.988;8.182;2022-09-24T00:53:25;2.97;;;2.77;;
21886;SDS011;11108;49.988;8.182;2022-09-24T00:55:55;3.00;;;2.80;;
21886;SDS011;11108;49.988;8.182;2022-09-24T00:58:20;2.90;;;2.70;;
21886;SDS011;11108;49.988;8.182;2022-09-24T01:00:47;2.63;;;2.50;;
21886;SDS011;11108;49.988;8.182;2022-09-24T01:03:14;2.53;;;2.43;;
21886;SDS011;11108;49.988;8.182;2022-09-24T01:05:40;2.73;;;2.57;;
21886;SDS011;11108;49.988;8.182;2022-09-24T01:08:06;2.80;;;2.60;;
21886;SDS011;11108;49.988;8.182;2022-09-24T01:16:11;2.60;;;2.40;;
21886;SDS011;11108;49.988;8.182;2022-09-24T01:18:45;2.30;;;2.10;;
21886;SDS011;11108;49.988;8.182;2022-09-24T01:21:29;2.67;;;2.47;;
21886;SDS011;11108;49.988;8.182;2022-09-24T01:32:03;2.87;;;2.67;;
21886;SDS011;11108;49.988;8.182;2022-09-24T01:34:31;3.53;;;2.70;;
21886;SDS011;11108;49.988;8.182;2022-09-24T01:36:58;2.30;;;2.20;;
21886;SDS011;11108;49.988;8.182;2022-09-24T01:39:25;2.60;;;2.50;;
21886;SDS011;11108;49.988;8.182;2022-09-24T01:41:50;2.43;;;2.30;;
21886;SDS011;11108;49.988;8.182;2022-09-24T01:44:16;2.47;;;2.27;;
21886;SDS011;11108;49.988;8.182;2022-09-24T01:46:42;2.40;;;2.30;;
21886;SDS011;11108;49.988;8.182;2022-09-24T01:49:07;2.43;;;2.23;;
21886;SDS011;11108;49.988;8.182;2022-09-24T01:51:37;2.60;;;2.40;;
21886;SDS011;11108;49.988;8.182;2022-09-24T01:54:06;2.80;;;2.60;;
21886;SDS011;11108;49.988;8.182;2022-09-24T01:56:44;2.60;;;2.50;;
21886;SDS011;11108;49.988;8.182;2022-09-24T01:59:11;2.30;;;2.20;;
21886;SDS011;11108;49.988;8.182;2022-09-24T02:01:44;2.70;;;2.50;;
21886;SDS011;11108;49.988;8.182;2022-09-24T02:04:12;2.63;;;2.53;;
21886;SDS011;11108;49.988;8.182;2022-09-24T02:06:46;2.13;;;2.03;;
21886;SDS011;11108;49.988;8.182;2022-09-24T02:09:30;2.67;;;2.47;;
21886;SDS011;11108;49.988;8.182;2022-09-24T02:11:56;2.50;;;2.30;;
21886;SDS011;11108;49.988;8.182;2022-09-24T02:14:22;2.63;;;2.53;;
21886;SDS011;11108;49.988;8.182;2022-09-24T02:16:48;2.40;;;2.30;;
21886;SDS011;11108;49.988;8.182;2022-09-24T02:19:16;2.40;;;2.30;;
21886;SDS011;11108;49.988;8.182;2022-09-24T02:21:42;2.67;;;2.47;;
21886;SDS011;11108;49.988;8.182;2022-09-24T02:24:12;2.30;;;2.20;;
21886;SDS011;11108;49.988;8.182;2022-09-24T02:26:38;2.40;;;2.30;;
21886;SDS011;11108;49.988;8.182;2022-09-24T02:29:03;2.20;;;2.10;;
21886;SDS011;11108;49.988;8.182;2022-09-24T02:31:30;3.27;;;3.07;;
21886;SDS011;11108;49.988;8.182;2022-09-24T02:33:56;2.87;;;2.67;;
21886;SDS011;11108;49.988;8.182;2022-09-24T02:36:41;2.50;;;2.40;;
21886;SDS011;11108;49.988;8.182;2022-09-24T02:39:07;2.40;;;2.20;;
21886;SDS011;11108;49.988;8.182;2022-09-24T02:41:35;2.43;;;2.33;;
21886;SDS011;11108;49.988;8.182;2022-09-24T02:44:00;2.10;;;2.00;;
21886;SDS011;11108;49.988;8.182;2022-09-24T02:46:25;2.40;;;2.20;;
21886;SDS011;11108;49.988;8.182;2022-09-24T02:48:51;2.20;;;2.10;;
21886;SDS011;11108;49.988;8.182;2022-09-24T02:51:16;2.23;;;2.10;;
21886;SDS011;11108;49.988;8.182;2022-09-24T02:53:41;2.43;;;2.20;;
21886;SDS011;11108;49.988;8.182;2022-09-24T02:56:06;2.60;;;2.50;;
21886;SDS011;11108;49.988;8.182;2022-09-24T02:58:32;2.27;;;2.17;;
21886;SDS011;11108;49.988;8.182;2022-09-24T03:00:57;2.13;;;2.03;;
21886;SDS011;11108;49.988;8.182;2022-09-24T03:03:22;2.60;;;2.50;;
21886;SDS011;11108;49.988;8.182;2022-09-24T03:05:48;2.40;;;2.30;;
21886;SDS011;11108;49.988;8.182;2022-09-24T03:08:13;2.10;;;2.00;;
21886;SDS011;11108;49.988;8.182;2022-09-24T03:10:39;2.13;;;1.87;;
21886;SDS011;11108;49.988;8.182;2022-09-24T03:13:04;2.30;;;2.20;;
21886;SDS011;11108;49.988;8.182;2022-09-24T03:15:29;2.30;;;2.20;;
21886;SDS011;11108;49.988;8.182;2022-09-24T03:17:54;2.30;;;2.20;;
21886;SDS011;11108;49.988;8.182;2022-09-24T03:20:20;2.27;;;2.17;;
21886;SDS011;11108;49.988;8.182;2022-09-24T03:22:49;2.47;;;2.37;;
21886;SDS011;11108;49.988;8.182;2022-09-24T03:25:14;2.73;;;2.53;;
21886;SDS011;11108;49.988;8.182;2022-09-24T03:27:39;2.30;;;2.20;;
21886;SDS011;11108;49.988;8.182;2022-09-24T03:30:05;2.03;;;1.93;;
21886;SDS011;11108;49.988;8.182;2022-09-24T03:32:49;2.20;;;2.10;;
21886;SDS011;11108;49.988;8.182;2022-09-24T03:35:14;2.33;;;2.23;;
21886;SDS011;11108;49.988;8.182;2022-09-24T03:37:39;2.60;;;1.83;;
21886;SDS011;11108;49.988;8.182;2022-09-24T03:40:05;2.33;;;2.23;;
21886;SDS011;11108;49.988;8.182;2022-09-24T03:42:31;1.83;;;1.73;;
21886;SDS011;11108;49.988;8.182;2022-09-24T03:44:58;1.90;;;1.80;;
21886;SDS011;11108;49.988;8.182;2022-09-24T03:47:23;2.07;;;1.97;;
21886;SDS011;11108;49.988;8.182;2022-09-24T03:49:48;2.03;;;1.93;;
21886;SDS011;11108;49.988;8.182;2022-09-24T03:52:14;2.20;;;2.10;;
21886;SDS011;11108;49.988;8.182;2022-09-24T03:54:39;2.03;;;1.93;;
21886;SDS011;11108;49.988;8.182;2022-09-24T03:57:04;2.17;;;2.07;;
21886;SDS011;11108;49.988;8.182;2022-09-24T03:59:29;2.10;;;2.00;;
21886;SDS011;11108;49.988;8.182;2022-09-24T04:01:54;1.77;;;1.67;;
21886;SDS011;11108;49.988;8.182;2022-09-24T04:04:20;2.20;;;2.10;;
21886;SDS011;11108;49.988;8.182;2022-09-24T04:06:45;2.10;;;2.00;;
21886;SDS011;11108;49.988;8.182;2022-09-24T04:09:10;2.10;;;2.00;;
21886;SDS011;11108;49.988;8.182;2022-09-24T04:11:35;2.00;;;1.93;;
21886;SDS011;11108;49.988;8.182;2022-09-24T04:14:01;2.43;;;2.23;;
21886;SDS011;11108;49.988;8.182;2022-09-24T04:16:27;1.90;;;1.80;;
21886;SDS011;11108;49.988;8.182;2022-09-24T04:18:52;1.67;;;1.57;;
21886;SDS011;11108;49.988;8.182;2022-09-24T04:21:19;2.00;;;1.90;;
21886;SDS011;11108;49.988;8.182;2022-09-24T04:23:45;2.03;;;1.93;;
21886;SDS011;11108;49.988;8.182;2022-09-24T04:26:10;2.30;;;2.10;;
21886;SDS011;11108;49.988;8.182;2022-09-24T04:28:36;2.10;;;2.00;;
21886;SDS011;11108;49.988;8.182;2022-09-24T04:31:01;2.10;;;2.00;;
21886;SDS011;11108;49.988;8.182;2022-09-24T04:33:27;1.60;;;1.60;;
21886;SDS011;11108;49.988;8.182;2022-09-24T04:35:52;1.90;;;1.80;;
21886;SDS011;11108;49.988;8.182;2022-09-24T04:38:17;2.00;;;1.90;;
21886;SDS011;11108;49.988;8.182;2022-09-24T04:40:45;1.90;;;1.80;;
21886;SDS011;11108;49.988;8.182;2022-09-24T04:43:10;2.07;;;1.97;;
21886;SDS011;11108;49.988;8.182;2022-09-24T04:45:35;2.27;;;2.17;;
21886;SDS011;11108;49.988;8.182;2022-09-24T04:48:01;1.93;;;1.83;;
21886;SDS011;11108;49.988;8.182;2022-09-24T04:50:26;2.00;;;1.90;;
21886;SDS011;11108;49.988;8.182;2022-09-24T04:52:53;2.40;;;2.10;;
21886;SDS011;11108;49.988;8.182;2022-09-24T04:55:18;2.00;;;1.80;;
21886;SDS011;11108;49.988;8.182;2022-09-24T04:57:44;1.90;;;1.80;;
21886;SDS011;11108;49.988;8.182;2022-09-24T05:00:10;1.90;;;1.80;;
21886;SDS011;11108;49.988;8.182;2022-09-24T05:02:38;1.97;;;1.87;;
21886;SDS011;11108;49.988;8.182;2022-09-24T05:05:04;1.77;;;1.77;;
21886;SDS011;11108;49.988;8.182;2022-09-24T05:07:29;1.90;;;1.80;;
21886;SDS011;11108;49.988;8.182;2022-09-24T05:09:54;2.07;;;1.97;;
21886;SDS011;11108;49.988;8.182;2022-09-24T05:12:19;1.70;;;1.60;;
21886;SDS011;11108;49.988;8.182;2022-09-24T05:14:45;1.97;;;1.87;;
21886;SDS011;11108;49.988;8.182;2022-09-24T05:17:10;2.00;;;1.90;;
21886;SDS011;11108;49.988;8.182;2022-09-24T05:19:35;1.77;;;1.67;;
21886;SDS011;11108;49.988;8.182;2022-09-24T05:22:00;1.93;;;1.80;;
21886;SDS011;11108;49.988;8.182;2022-09-24T05:24:25;1.83;;;1.73;;
21886;SDS011;11108;49.988;8.182;2022-09-24T05:26:51;2.00;;;1.90;;
21886;SDS011;11108;49.988;8.182;2022-09-24T05:29:38;1.70;;;1.60;;
21886;SDS011;11108;49.988;8.182;2022-09-24T05:32:08;2.03;;;1.93;;
21886;SDS011;11108;49.988;8.182;2022-09-24T05:34:33;2.00;;;1.90;;
21886;SDS011;11108;49.988;8.182;2022-09-24T05:36:58;1.63;;;1.60;;
21886;SDS011;11108;49.988;8.182;2022-09-24T05:39:24;2.10;;;1.90;;
21886;SDS011;11108;49.988;8.182;2022-09-24T05:41:49;1.63;;;1.53;;
21886;SDS011;11108;49.988;8.182;2022-09-24T05:44:14;1.60;;;1.60;;
21886;SDS011;11108;49.988;8.182;2022-09-24T05:46:40;2.03;;;1.93;;
21886;SDS011;11108;49.988;8.182;2022-09-24T05:49:05;1.73;;;1.63;;
21886;SDS011;11108;49.988;8.182;2022-09-24T05:51:30;1.93;;;1.83;;
21886;SDS011;11108;49.988;8.182;2022-09-24T05:53:55;1.80;;;1.70;;
21886;SDS011;11108;49.988;8.182;2022-09-24T05:56:20;1.80;;;1.70;;
21886;SDS011;11108;49.988;8.182;2022-09-24T05:58:49;2.00;;;1.90;;
21886;SDS011;11108;49.988;8.182;2022-09-24T06:01:14;2.03;;;1.93;;
21886;SDS011;11108;49.988;8.182;2022-09-24T06:03:39;1.90;;;1.80;;
21886;SDS011;11108;49.988;8.182;2022-09-24T06:06:05;2.20;;;2.10;;
21886;SDS011;11108;49.988;8.182;2022-09-24T06:08:30;1.70;;;1.60;;
21886;SDS011;11108;49.988;8.182;2022-09-24T06:10:57;2.13;;;1.90;;
21886;SDS011;11108;49.988;8.182;2022-09-24T06:13:23;1.70;;;1.70;;
21886;SDS011;11108;49.988;8.182;2022-09-24T06:15:49;1.83;;;1.63;;
21886;SDS011;11108;49.988;8.182;2022-09-24T06:18:14;2.20;;;1.70;;
21886;SDS011;11108;49.988;8.182;2022-09-24T06:20:39;1.77;;;1.67;;
21886;SDS011;11108;49.988;8.182;2022-09-24T06:23:04;1.63;;;1.63;;
21886;SDS011;11108;49.988;8.182;2022-09-24T06:25:30;1.50;;;1.50;;
21886;SDS011;11108;49.988;8.182;2022-09-24T06:27:56;1.90;;;1.80;;
21886;SDS011;11108;49.988;8.182;2022-09-24T06:30:24;1.93;;;1.90;;
21886;SDS011;11108;49.988;8.182;2022-09-24T06:32:50;2.00;;;1.90;;
21886;SDS011;11108;49.988;8.182;2022-09-24T06:35:15;1.80;;;1.80;;
21886;SDS011;11108;49.988;8.182;2022-09-24T06:37:40;1.50;;;1.50;;
21886;SDS011;11108;49.988;8.182;2022-09-24T06:40:05;1.60;;;1.60;;
21886;SDS011;11108;49.988;8.182;2022-09-24T06:42:31;2.27;;;1.97;;
21886;SDS011;11108;49.988;8.182;2022-09-24T06:44:56;2.00;;;1.90;;
21886;SDS011;11108;49.988;8.182;2022-09-24T06:47:21;1.77;;;1.67;;
21886;SDS011;11108;49.988;8.182;2022-09-24T06:49:48;2.03;;;1.93;;
21886;SDS011;11108;49.988;8.182;2022-09-24T06:52:14;1.57;;;1.50;;
21886;SDS011;11108;49.988;8.182;2022-09-24T06:54:40;1.90;;;1.80;;
21886;SDS011;11108;49.988;8.182;2022-09-24T06:57:05;1.80;;;1.70;;
21886;SDS011;11108;49.988;8.182;2022-09-24T06:59:30;1.80;;;1.70;;
21886;SDS011;11108;49.988;8.182;2022-09-24T07:01:56;1.73;;;1.70;;
21886;SDS011;11108;49.988;8.182;2022-09-24T07:04:23;1.67;;;1.60;;
21886;SDS011;11108;49.988;8.182;2022-09-24T07:06:48;1.90;;;1.80;;
21886;SDS011;11108;49.988;8.182;2022-09-24T07:09:32;1.90;;;1.80;;
21886;SDS011;11108;49.988;8.182;2022-09-24T07:11:57;1.90;;;1.80;;
21886;SDS011;11108;49.988;8.182;2022-09-24T07:14:22;1.70;;;1.60;;
21886;SDS011;11108;49.988;8.182;2022-09-24T07:16:48;1.83;;;1.77;;
21886;SDS011;11108;49.988;8.182;2022-09-24T07:19:13;1.70;;;1.70;;
21886;SDS011;11108;49.988;8.182;2022-09-24T07:21:38;1.67;;;1.67;;
21886;SDS011;11108;49.988;8.182;2022-09-24T07:24:03;1.70;;;1.60;;
21886;SDS011;11108;49.988;8.182;2022-09-24T07:26:29;1.47;;;1.47;;
21886;SDS011;11108;49.988;8.182;2022-09-24T07:28:54;2.17;;;1.97;;
21886;SDS011;11108;49.988;8.182;2022-09-24T07:31:20;1.70;;;1.60;;
21886;SDS011;11108;49.988;8.182;2022-09-24T07:33:45;1.60;;;1.50;;
21886;SDS011;11108;49.988;8.182;2022-09-24T07:36:10;1.80;;;1.70;;
21886;SDS011;11108;49.988;8.182;2022-09-24T07:38:35;1.50;;;1.50;;
21886;SDS011;11108;49.988;8.182;2022-09-24T07:41:01;1.70;;;1.60;;
21886;SDS011;11108;49.988;8.182;2022-09-24T07:43:28;1.90;;;1.80;;
21886;SDS011;11108;49.988;8.182;2022-09-24T07:45:54;1.60;;;1.60;;
21886;SDS011;11108;49.988;8.182;2022-09-24T07:48:20;1.40;;;1.40;;
21886;SDS011;11108;49.988;8.182;2022-09-24T07:50:45;1.70;;;1.60;;
21886;SDS011;11108;49.988;8.182;2022-09-24T07:53:11;1.90;;;1.80;;
21886;SDS011;11108;49.988;8.182;2022-09-24T07:55:37;1.67;;;1.57;;
21886;SDS011;11108;49.988;8.182;2022-09-24T07:58:05;1.50;;;1.40;;
21886;SDS011;11108;49.988;8.182;2022-09-24T08:00:30;1.60;;;1.50;;
21886;SDS011;11108;49.988;8.182;2022-09-24T08:02:55;1.83;;;1.73;;
21886;SDS011;11108;49.988;8.182;2022-09-24T08:05:20;2.43;;;1.70;;
21886;SDS011;11108;49.988;8.182;2022-09-24T08:07:52;1.67;;;1.67;;
21886;SDS011;11108;49.988;8.182;2022-09-24T08:10:18;1.67;;;1.57;;
21886;SDS011;11108;49.988;8.182;2022-09-24T08:12:43;1.70;;;1.60;;
21886;SDS011;11108;49.988;8.182;2022-09-24T08:15:08;1.50;;;1.50;;
21886;SDS011;11108;49.988;8.182;2022-09-24T08:17:33;1.70;;;1.60;;
21886;SDS011;11108;49.988;8.182;2022-09-24T08:19:59;1.90;;;1.60;;
21886;SDS011;11108;49.988;8.182;2022-09-24T08:22:24;1.90;;;1.60;;
21886;SDS011;11108;49.988;8.182;2022-09-24T08:24:50;1.60;;;1.60;;
21886;SDS011;11108;49.988;8.182;2022-09-24T08:27:16;1.73;;;1.67;;
21886;SDS011;11108;49.988;8.182;2022-09-24T08:29:41;1.73;;;1.63;;
21886;SDS011;11108;49.988;8.182;2022-09-24T08:32:07;1.80;;;1.70;;
21886;SDS011;11108;49.988;8.182;2022-09-24T08:34:32;1.93;;;1.83;;
21886;SDS011;11108;49.988;8.182;2022-09-24T08:37:02;1.67;;;1.57;;
21886;SDS011;11108;49.988;8.182;2022-09-24T08:39:28;1.70;;;1.60;;
21886;SDS011;11108;49.988;8.182;2022-09-24T08:41:54;1.50;;;1.40;;
21886;SDS011;11108;49.988;8.182;2022-09-24T08:47:27;1.83;;;1.80;;
21886;SDS011;11108;49.988;8.182;2022-09-24T08:49:57;1.63;;;1.60;;
21886;SDS011;11108;49.988;8.182;2022-09-24T08:55:09;1.40;;;1.40;;
21886;SDS011;11108;49.988;8.182;2022-09-24T08:57:39;1.80;;;1.60;;
21886;SDS011;11108;49.988;8.182;2022-09-24T09:00:04;1.40;;;1.40;;
21886;SDS011;11108;49.988;8.182;2022-09-24T09:05:17;1.40;;;1.40;;
21886;SDS011;11108;49.988;8.182;2022-09-24T09:07:49;2.10;;;2.00;;
21886;SDS011;11108;49.988;8.182;2022-09-24T09:10:20;2.30;;;1.80;;
21886;SDS011;11108;49.988;8.182;2022-09-24T09:12:56;1.47;;;1.47;;
21886;SDS011;11108;49.988;8.182;2022-09-24T09:15:27;1.73;;;1.63;;
21886;SDS011;11108;49.988;8.182;2022-09-24T09:20:19;1.87;;;1.67;;
21886;SDS011;11108;49.988;8.182;2022-09-24T09:22:46;1.50;;;1.40;;
21886;SDS011;11108;49.988;8.182;2022-09-24T09:25:20;1.40;;;1.30;;
21886;SDS011;11108;49.988;8.182;2022-09-24T09:27:49;1.80;;;1.77;;
21886;SDS011;11108;49.988;8.182;2022-09-24T09:30:16;2.47;;;2.30;;
21886;SDS011;11108;49.988;8.182;2022-09-24T09:35:17;2.77;;;1.83;;
21886;SDS011;11108;49.988;8.182;2022-09-24T09:40:33;1.80;;;1.70;;
21886;SDS011;11108;49.988;8.182;2022-09-24T09:43:00;2.40;;;1.73;;
21886;SDS011;11108;49.988;8.182;2022-09-24T09:48:11;1.60;;;1.60;;
21886;SDS011;11108;49.988;8.182;2022-09-24T09:50:43;1.80;;;1.70;;
21886;SDS011;11108;49.988;8.182;2022-09-24T09:53:24;1.83;;;1.73;;
21886;SDS011;11108;49.988;8.182;2022-09-24T09:55:57;1.80;;;1.70;;
21886;SDS011;11108;49.988;8.182;2022-09-24T09:58:27;1.40;;;1.40;;
21886;SDS011;11108;49.988;8.182;2022-09-24T10:03:31;2.00;;;1.90;;
21886;SDS011;11108;49.988;8.182;2022-09-24T10:05:58;2.00;;;1.90;;
21886;SDS011;11108;49.988;8.182;2022-09-24T10:08:24;1.60;;;1.60;;
21886;SDS011;11108;49.988;8.182;2022-09-24T10:10:53;2.30;;;2.10;;
21886;SDS011;11108;49.988;8.182;2022-09-24T10:13:21;1.73;;;1.47;;
21886;SDS011;11108;49.988;8.182;2022-09-24T10:15:51;1.80;;;1.70;;
21886;SDS011;11108;49.988;8.182;2022-09-24T10:18:17;1.60;;;1.50;;
21886;SDS011;11108;49.988;8.182;2022-09-24T10:20:47;1.70;;;1.60;;
21886;SDS011;11108;49.988;8.182;2022-09-24T10:23:20;2.23;;;1.90;;
21886;SDS011;11108;49.988;8.182;2022-09-24T10:25:50;1.80;;;1.70;;
21886;SDS011;11108;49.988;8.182;2022-09-24T10:28:16;2.10;;;1.90;;
21886;SDS011;11108;49.988;8.182;2022-09-24T10:31:05;1.87;;;1.77;;
21886;SDS011;11108;49.988;8.182;2022-09-24T10:33:38;1.70;;;1.60;;
21886;SDS011;11108;49.988;8.182;2022-09-24T10:36:05;2.77;;;2.00;;
21886;SDS011;11108;49.988;8.182;2022-09-24T10:38:31;2.30;;;1.90;;
21886;SDS011;11108;49.988;8.182;2022-09-24T10:40:57;1.80;;;1.70;;
21886;SDS011;11108;49.988;8.182;2022-09-24T10:43:23;2.03;;;1.90;;
21886;SDS011;11108;49.988;8.182;2022-09-24T10:48:48;2.03;;;1.73;;
21886;SDS011;11108;49.988;8.182;2022-09-24T10:56:32;2.87;;;2.03;;
21886;SDS011;11108;49.988;8.182;2022-09-24T10:59:06;2.47;;;1.90;;
21886;SDS011;11108;49.988;8.182;2022-09-24T11:01:39;4.40;;;2.10;;
21886;SDS011;11108;49.988;8.182;2022-09-24T11:04:18;5.70;;;2.97;;
21886;SDS011;11108;49.988;8.182;2022-09-24T11:09:19;5.20;;;3.17;;
21886;SDS011;11108;49.988;8.182;2022-09-24T11:14:29;11.87;;;3.43;;
21886;SDS011;11108;49.988;8.182;2022-09-24T11:17:03;11.33;;;4.27;;
21886;SDS011;11108;49.988;8.182;2022-09-24T11:22:15;14.00;;;4.40;;
21886;SDS011;11108;49.988;8.182;2022-09-24T11:24:46;14.03;;;4.00;;
21886;SDS011;11108;49.988;8.182;2022-09-24T11:30:06;15.93;;;4.70;;
21886;SDS011;11108;49.988;8.182;2022-09-24T11:32:54;13.20;;;4.33;;
21886;SDS011;11108;49.988;8.182;2022-09-24T11:40:36;14.40;;;4.70;;
21886;SDS011;11108;49.988;8.182;2022-09-24T11:45:50;7.37;;;3.83;;
21886;SDS011;11108;49.988;8.182;2022-09-24T11:53:13;7.53;;;3.43;;
21886;SDS011;11108;49.988;8.182;2022-09-24T11:55:49;6.00;;;3.17;;
21886;SDS011;11108;49.988;8.182;2022-09-24T12:00:45;6.47;;;3.20;;
21886;SDS011;11108;49.988;8.182;2022-09-24T12:03:13;5.63;;;3.10;;
21886;SDS011;11108;49.988;8.182;2022-09-24T12:05:42;9.17;;;3.37;;
21886;SDS011;11108;49.988;8.182;2022-09-24T12:08:16;4.97;;;2.87;;
21886;SDS011;11108;49.988;8.182;2022-09-24T12:10:44;9.27;;;3.63;;
21886;SDS011;11108;49.988;8.182;2022-09-24T12:13:14;5.73;;;2.80;;
21886;SDS011;11108;49.988;8.182;2022-09-24T12:15:50;4.40;;;2.60;;
21886;SDS011;11108;49.988;8.182;2022-09-24T12:18:17;8.40;;;2.93;;
21886;SDS011;11108;49.988;8.182;2022-09-24T12:20:45;3.73;;;2.97;;
21886;SDS011;11108;49.988;8.182;2022-09-24T12:23:13;3.90;;;2.47;;
21886;SDS011;11108;49.988;8.182;2022-09-24T12:25:41;4.07;;;2.90;;
21886;SDS011;11108;49.988;8.182;2022-09-24T12:28:10;7.87;;;3.40;;
21886;SDS011;11108;49.988;8.182;2022-09-24T12:30:38;5.93;;;3.03;;
21886;SDS011;11108;49.988;8.182;2022-09-24T12:36:03;5.37;;;3.10;;
21886;SDS011;11108;49.988;8.182;2022-09-24T12:43:54;3.33;;;3.00;;
21886;SDS011;11108;49.988;8.182;2022-09-24T12:46:25;4.27;;;3.20;;
21886;SDS011;11108;49.988;8.182;2022-09-24T12:48:53;5.73;;;3.60;;
21886;SDS011;11108;49.988;8.182;2022-09-24T12:51:18;6.27;;;3.50;;
21886;SDS011;11108;49.988;8.182;2022-09-24T12:53:58;3.73;;;3.37;;
21886;SDS011;11108;49.988;8.182;2022-09-24T12:56:27;5.43;;;3.37;;
21886;SDS011;11108;49.988;8.182;2022-09-24T12:58:53;6.23;;;3.40;;
21886;SDS011;11108;49.988;8.182;2022-09-24T13:03:45;5.10;;;2.90;;
21886;SDS011;11108;49.988;8.182;2022-09-24T13:06:30;6.17;;;3.00;;
21886;SDS011;11108;49.988;8.182;2022-09-24T13:08:56;5.73;;;3.20;;
21886;SDS011;11108;49.988;8.182;2022-09-24T13:11:31;5.00;;;3.10;;
21886;SDS011;11108;49.988;8.182;2022-09-24T13:13:59;4.43;;;3.10;;
21886;SDS011;11108;49.988;8.182;2022-09-24T13:16:26;4.07;;;3.03;;
21886;SDS011;11108;49.988;8.182;2022-09-24T13:18:52;5.43;;;2.80;;
21886;SDS011;11108;49.988;8.182;2022-09-24T13:21:22;3.47;;;2.90;;
21886;SDS011;11108;49.988;8.182;2022-09-24T13:23:49;4.17;;;3.27;;
21886;SDS011;11108;49.988;8.182;2022-09-24T13:31:25;7.73;;;3.27;;
21886;SDS011;11108;49.988;8.182;2022-09-24T13:33:56;5.20;;;3.20;;
21886;SDS011;11108;49.988;8.182;2022-09-24T13:36:32;3.50;;;2.90;;
21886;SDS011;11108;49.988;8.182;2022-09-24T13:46:27;3.60;;;3.30;;
21886;SDS011;11108;49.988;8.182;2022-09-24T13:48:54;3.30;;;2.90;;
21886;SDS011;11108;49.988;8.182;2022-09-24T13:51:22;6.90;;;3.13;;
21886;SDS011;11108;49.988;8.182;2022-09-24T13:53:51;5.43;;;3.40;;
21886;SDS011;11108;49.988;8.182;2022-09-24T13:56:17;5.07;;;3.10;;
21886;SDS011;11108;49.988;8.182;2022-09-24T13:58:43;4.20;;;3.10;;
21886;SDS011;11108;49.988;8.182;2022-09-24T14:01:16;3.23;;;2.93;;
21886;SDS011;11108;49.988;8.182;2022-09-24T14:03:56;3.70;;;3.27;;
21886;SDS011;11108;49.988;8.182;2022-09-24T14:06:32;4.03;;;3.13;;
21886;SDS011;11108;49.988;8.182;2022-09-24T14:08:58;3.50;;;2.90;;
21886;SDS011;11108;49.988;8.182;2022-09-24T14:11:25;4.10;;;3.03;;
21886;SDS011;11108;49.988;8.182;2022-09-24T14:13:50;3.80;;;3.20;;
21886;SDS011;11108;49.988;8.182;2022-09-24T14:16:19;4.33;;;3.10;;
21886;SDS011;11108;49.988;8.182;2022-09-24T14:18:45;4.77;;;2.57;;
21886;SDS011;11108;49.988;8.182;2022-09-24T14:21:19;6.37;;;3.20;;
21886;SDS011;11108;49.988;8.182;2022-09-24T14:23:56;5.27;;;3.30;;
21886;SDS011;11108;49.988;8.182;2022-09-24T14:26:32;3.90;;;2.80;;
21886;SDS011;11108;49.988;8.182;2022-09-24T14:29:02;3.60;;;3.07;;
21886;SDS011;11108;49.988;8.182;2022-09-24T14:31:29;4.53;;;3.40;;
21886;SDS011;11108;49.988;8.182;2022-09-24T14:33:54;3.50;;;3.20;;
21886;SDS011;11108;49.988;8.182;2022-09-24T14:36:20;3.37;;;3.00;;
21886;SDS011;11108;49.988;8.182;2022-09-24T14:38:59;4.60;;;2.77;;
21886;SDS011;11108;49.988;8.182;2022-09-24T14:41:27;2.93;;;2.63;;
21886;SDS011;11108;49.988;8.182;2022-09-24T14:43:58;3.37;;;3.07;;
21886;SDS011;11108;49.988;8.182;2022-09-24T14:46:24;3.43;;;3.20;;
21886;SDS011;11108;49.988;8.182;2022-09-24T14:48:51;3.40;;;3.10;;
21886;SDS011;11108;49.988;8.182;2022-09-24T14:51:28;4.13;;;3.13;;
21886;SDS011;11108;49.988;8.182;2022-09-24T14:54:01;3.57;;;3.27;;
21886;SDS011;11108;49.988;8.182;2022-09-24T14:56:31;5.87;;;3.07;;
21886;SDS011;11108;49.988;8.182;2022-09-24T14:58:57;3.43;;;3.13;;
21886;SDS011;11108;49.988;8.182;2022-09-24T15:01:23;3.63;;;3.33;;
21886;SDS011;11108;49.988;8.182;2022-09-24T15:03:50;3.23;;;3.03;;
21886;SDS011;11108;49.988;8.182;2022-09-24T15:08:42;4.13;;;3.73;;
21886;SDS011;11108;49.988;8.182;2022-09-24T15:11:13;3.80;;;3.40;;
21886;SDS011;11108;49.988;8.182;2022-09-24T15:13:39;4.87;;;4.00;;
21886;SDS011;11108;49.988;8.182;2022-09-24T15:16:18;4.47;;;4.17;;
21886;SDS011;11108;49.988;8.182;2022-09-24T15:18:46;4.50;;;4.10;;
21886;SDS011;11108;49.988;8.182;2022-09-24T15:21:13;4.57;;;4.27;;
21886;SDS011;11108;49.988;8.182;2022-09-24T15:23:38;5.27;;;4.77;;
21886;SDS011;11108;49.988;8.182;2022-09-24T15:26:03;5.00;;;4.50;;
21886;SDS011;11108;49.988;8.182;2022-09-24T15:28:29;5.20;;;4.70;;
21886;SDS011;11108;49.988;8.182;2022-09-24T15:30:55;5.13;;;4.67;;
21886;SDS011;11108;49.988;8.182;2022-09-24T15:33:20;6.40;;;5.17;;
21886;SDS011;11108;49.988;8.182;2022-09-24T15:35:45;5.10;;;4.70;;
21886;SDS011;11108;49.988;8.182;2022-09-24T15:38:12;5.53;;;5.13;;
21886;SDS011;11108;49.988;8.182;2022-09-24T15:40:39;5.57;;;5.07;;
21886;SDS011;11108;49.988;8.182;2022-09-24T15:43:07;5.10;;;4.60;;
21886;SDS011;11108;49.988;8.182;2022-09-24T15:45:36;5.10;;;4.70;;
21886;SDS011;11108;49.988;8.182;2022-09-24T15:48:02;5.13;;;4.73;;
21886;SDS011;11108;49.988;8.182;2022-09-24T15:50:27;5.13;;;4.73;;
21886;SDS011;11108;49.988;8.182;2022-09-24T15:52:53;5.03;;;4.60;;
21886;SDS011;11108;49.988;8.182;2022-09-24T15:55:19;5.43;;;4.93;;
21886;SDS011;11108;49.988;8.182;2022-09-24T15:57:45;5.17;;;4.67;;
21886;SDS011;11108;49.988;8.182;2022-09-24T16:00:12;4.80;;;4.40;;
21886;SDS011;11108;49.988;8.182;2022-09-24T16:02:37;5.60;;;4.93;;
21886;SDS011;11108;49.988;8.182;2022-09-24T16:05:08;5.70;;;4.70;;
21886;SDS011;11108;49.988;8.182;2022-09-24T16:07:33;4.87;;;4.43;;
21886;SDS011;11108;49.988;8.182;2022-09-24T16:09:58;6.97;;;4.57;;
21886;SDS011;11108;49.988;8.182;2022-09-24T16:12:24;4.97;;;4.20;;
21886;SDS011;11108;49.988;8.182;2022-09-24T16:14:51;4.53;;;4.13;;
21886;SDS011;11108;49.988;8.182;2022-09-24T16:17:18;5.30;;;4.80;;
21886;SDS011;11108;49.988;8.182;2022-09-24T16:19:44;6.57;;;4.83;;
21886;SDS011;11108;49.988;8.182;2022-09-24T16:22:09;5.13;;;4.73;;
21886;SDS011;11108;49.988;8.182;2022-09-24T16:24:34;5.07;;;4.57;;
21886;SDS011;11108;49.988;8.182;2022-09-24T16:27:00;5.70;;;5.23;;